sensor_id;sensor_type;location;lat;lon;timestamp;P1;durP1;ratioP1;P2;durP2;ratioP2
33862;SDS011;20158;51.436;-2.742;2023-05-17T00:02:20;6.55;;;3.47;;
33862;SDS011;20158;51.436;-2.742;2023-05-17T00:04:46;6.38;;;3.03;;
33862;SDS011;20158;51.436;-2.742;2023-05-17T00:07:12;6.22;;;3.13;;
33862;SDS011;20158;51.436;-2.742;2023-05-17T00:09:38;4.75;;;2.83;;
33862;SDS011;20158;51.436;-2.742;2023-05-17T00:12:04;4.28;;;3.17;;
33862;SDS011;20158;51.436;-2.742;2023-05-17T00:14:31;5.18;;;2.97;;
33862;SDS011;20158;51.436;-2.742;2023-05-17T00:16:57;3.80;;;2.80;;
33862;SDS011;20158;51.436;-2.742;2023-05-17T00:19:23;3.97;;;3.10;;
33862;SDS011;20158;51.436;-2.742;2023-05-17T00:21:49;4.25;;;3.08;;
33862;SDS011;20158;51.436;-2.742;2023-05-17T00:24:14;4.25;;;2.80;;
33862;SDS011;20158;51.436;-2.742;2023-05-17T00:26:40;4.70;;;2.83;;
33862;SDS011;20158;51.436;-2.742;2023-05-17T00:29:06;4.90;;;2.97;;
33862;SDS011;20158;51.436;-2.742;2023-05-17T00:31:32;4.60;;;3.25;;
33862;SDS011;20158;51.436;-2.742;2023-05-17T00:33:58;4.65;;;3.13;;
33862;SDS011;20158;51.436;-2.742;2023-05-17T00:36:24;5.53;;;3.00;;
33862;SDS011;20158;51.436;-2.742;2023-05-17T00:38:50;3.65;;;2.60;;
33862;SDS011;20158;51.436;-2.742;2023-05-17T00:41:16;4.78;;;2.70;;
33862;SDS011;20158;51.436;-2.742;2023-05-17T00:43:42;3.97;;;2.80;;
33862;SDS011;20158;51.436;-2.742;2023-05-17T00:46:08;6.10;;;2.78;;
33862;SDS011;20158;51.436;-2.742;2023-05-17T00:48:34;4.85;;;3.35;;
33862;SDS011;20158;51.436;-2.742;2023-05-17T00:51:00;4.63;;;3.13;;
33862;SDS011;20158;51.436;-2.742;2023-05-17T00:53:26;4.25;;;3.15;;
33862;SDS011;20158;51.436;-2.742;2023-05-17T00:55:54;4.53;;;2.80;;
33862;SDS011;20158;51.436;-2.742;2023-05-17T00:58:20;5.88;;;3.30;;
33862;SDS011;20158;51.436;-2.742;2023-05-17T01:00:47;6.75;;;3.08;;
33862;SDS011;20158;51.436;-2.742;2023-05-17T01:03:14;5.15;;;2.92;;
33862;SDS011;20158;51.436;-2.742;2023-05-17T01:05:41;3.97;;;3.28;;
33862;SDS011;20158;51.436;-2.742;2023-05-17T01:08:06;4.88;;;3.00;;
33862;SDS011;20158;51.436;-2.742;2023-05-17T01:10:56;4.65;;;2.80;;
33862;SDS011;20158;51.436;-2.742;2023-05-17T01:13:21;3.40;;;2.30;;
33862;SDS011;20158;51.436;-2.742;2023-05-17T01:16:09;4.88;;;2.90;;
33862;SDS011;20158;51.436;-2.742;2023-05-17T01:18:51;3.63;;;2.63;;
33862;SDS011;20158;51.436;-2.742;2023-05-17T01:27:00;3.95;;;2.55;;
33862;SDS011;20158;51.436;-2.742;2023-05-17T01:29:29;4.38;;;2.75;;
33862;SDS011;20158;51.436;-2.742;2023-05-17T01:31:58;3.58;;;2.60;;
33862;SDS011;20158;51.436;-2.742;2023-05-17T01:34:27;4.25;;;3.03;;
33862;SDS011;20158;51.436;-2.742;2023-05-17T01:36:54;4.03;;;2.90;;
33862;SDS011;20158;51.436;-2.742;2023-05-17T01:39:22;5.07;;;3.40;;
33862;SDS011;20158;51.436;-2.742;2023-05-17T01:47:04;4.00;;;2.58;;
33862;SDS011;20158;51.436;-2.742;2023-05-17T01:49:37;4.97;;;3.00;;
33862;SDS011;20158;51.436;-2.742;2023-05-17T01:52:17;4.50;;;2.65;;
33862;SDS011;20158;51.436;-2.742;2023-05-17T01:57:40;5.03;;;3.10;;
33862;SDS011;20158;51.436;-2.742;2023-05-17T02:00:09;4.22;;;2.42;;
33862;SDS011;20158;51.436;-2.742;2023-05-17T02:02:44;5.97;;;3.67;;
33862;SDS011;20158;51.436;-2.742;2023-05-17T02:05:10;5.78;;;3.28;;
33862;SDS011;20158;51.436;-2.742;2023-05-17T02:07:38;3.35;;;2.75;;
33862;SDS011;20158;51.436;-2.742;2023-05-17T02:10:04;4.53;;;2.75;;
33862;SDS011;20158;51.436;-2.742;2023-05-17T02:12:31;3.92;;;2.80;;
33862;SDS011;20158;51.436;-2.742;2023-05-17T02:14:57;5.05;;;2.88;;
33862;SDS011;20158;51.436;-2.742;2023-05-17T02:17:23;5.97;;;3.08;;
33862;SDS011;20158;51.436;-2.742;2023-05-17T02:19:48;3.30;;;2.45;;
33862;SDS011;20158;51.436;-2.742;2023-05-17T02:22:14;4.10;;;3.10;;
33862;SDS011;20158;51.436;-2.742;2023-05-17T02:24:40;3.45;;;2.63;;
33862;SDS011;20158;51.436;-2.742;2023-05-17T02:27:06;4.57;;;2.95;;
33862;SDS011;20158;51.436;-2.742;2023-05-17T02:29:32;6.78;;;3.10;;
33862;SDS011;20158;51.436;-2.742;2023-05-17T02:31:58;4.72;;;3.65;;
33862;SDS011;20158;51.436;-2.742;2023-05-17T02:34:24;5.25;;;3.15;;
33862;SDS011;20158;51.436;-2.742;2023-05-17T02:36:50;4.60;;;2.72;;
33862;SDS011;20158;51.436;-2.742;2023-05-17T02:39:17;4.85;;;3.00;;
33862;SDS011;20158;51.436;-2.742;2023-05-17T02:41:43;4.55;;;3.15;;
33862;SDS011;20158;51.436;-2.742;2023-05-17T02:44:09;4.57;;;2.92;;
33862;SDS011;20158;51.436;-2.742;2023-05-17T02:46:35;4.97;;;3.53;;
33862;SDS011;20158;51.436;-2.742;2023-05-17T02:49:01;3.42;;;2.70;;
33862;SDS011;20158;51.436;-2.742;2023-05-17T02:51:27;4.30;;;3.03;;
33862;SDS011;20158;51.436;-2.742;2023-05-17T02:53:53;4.45;;;2.95;;
33862;SDS011;20158;51.436;-2.742;2023-05-17T02:56:20;4.45;;;3.08;;
33862;SDS011;20158;51.436;-2.742;2023-05-17T02:58:46;5.60;;;3.13;;
33862;SDS011;20158;51.436;-2.742;2023-05-17T03:01:13;5.25;;;3.05;;
33862;SDS011;20158;51.436;-2.742;2023-05-17T03:03:39;5.72;;;3.67;;
33862;SDS011;20158;51.436;-2.742;2023-05-17T03:06:05;4.60;;;3.88;;
33862;SDS011;20158;51.436;-2.742;2023-05-17T03:08:32;3.60;;;3.22;;
33862;SDS011;20158;51.436;-2.742;2023-05-17T03:11:00;3.58;;;3.05;;
33862;SDS011;20158;51.436;-2.742;2023-05-17T03:13:26;4.88;;;2.80;;
33862;SDS011;20158;51.436;-2.742;2023-05-17T03:15:52;4.78;;;2.67;;
33862;SDS011;20158;51.436;-2.742;2023-05-17T03:18:17;3.38;;;2.75;;
33862;SDS011;20158;51.436;-2.742;2023-05-17T03:20:44;4.07;;;2.92;;
33862;SDS011;20158;51.436;-2.742;2023-05-17T03:23:10;4.80;;;2.65;;
33862;SDS011;20158;51.436;-2.742;2023-05-17T03:25:46;4.93;;;3.10;;
33862;SDS011;20158;51.436;-2.742;2023-05-17T03:28:12;3.85;;;2.67;;
33862;SDS011;20158;51.436;-2.742;2023-05-17T03:30:38;3.55;;;3.10;;
33862;SDS011;20158;51.436;-2.742;2023-05-17T03:33:04;5.45;;;3.42;;
33862;SDS011;20158;51.436;-2.742;2023-05-17T03:35:30;4.78;;;3.00;;
33862;SDS011;20158;51.436;-2.742;2023-05-17T03:37:56;3.85;;;3.17;;
33862;SDS011;20158;51.436;-2.742;2023-05-17T03:40:24;4.80;;;3.30;;
33862;SDS011;20158;51.436;-2.742;2023-05-17T03:42:50;4.72;;;2.97;;
33862;SDS011;20158;51.436;-2.742;2023-05-17T03:45:17;4.68;;;3.20;;
33862;SDS011;20158;51.436;-2.742;2023-05-17T03:47:45;5.18;;;3.10;;
33862;SDS011;20158;51.436;-2.742;2023-05-17T03:50:11;4.45;;;2.75;;
33862;SDS011;20158;51.436;-2.742;2023-05-17T03:52:37;3.90;;;2.90;;
33862;SDS011;20158;51.436;-2.742;2023-05-17T03:55:03;4.85;;;3.05;;
33862;SDS011;20158;51.436;-2.742;2023-05-17T03:57:30;3.42;;;3.05;;
33862;SDS011;20158;51.436;-2.742;2023-05-17T03:59:56;5.70;;;3.20;;
33862;SDS011;20158;51.436;-2.742;2023-05-17T04:02:22;3.65;;;2.92;;
33862;SDS011;20158;51.436;-2.742;2023-05-17T04:04:50;3.10;;;2.65;;
33862;SDS011;20158;51.436;-2.742;2023-05-17T04:07:18;3.78;;;2.75;;
33862;SDS011;20158;51.436;-2.742;2023-05-17T04:09:45;5.72;;;2.80;;
33862;SDS011;20158;51.436;-2.742;2023-05-17T04:12:11;3.80;;;2.83;;
33862;SDS011;20158;51.436;-2.742;2023-05-17T04:14:38;3.40;;;2.95;;
33862;SDS011;20158;51.436;-2.742;2023-05-17T04:17:05;3.67;;;2.80;;
33862;SDS011;20158;51.436;-2.742;2023-05-17T04:19:31;3.92;;;2.90;;
33862;SDS011;20158;51.436;-2.742;2023-05-17T04:21:57;4.13;;;2.90;;
33862;SDS011;20158;51.436;-2.742;2023-05-17T04:24:25;3.63;;;2.67;;
33862;SDS011;20158;51.436;-2.742;2023-05-17T04:26:52;3.70;;;3.03;;
33862;SDS011;20158;51.436;-2.742;2023-05-17T04:29:22;3.42;;;2.60;;
33862;SDS011;20158;51.436;-2.742;2023-05-17T04:31:48;3.78;;;2.80;;
33862;SDS011;20158;51.436;-2.742;2023-05-17T04:34:15;4.20;;;2.92;;
33862;SDS011;20158;51.436;-2.742;2023-05-17T04:36:41;4.43;;;2.70;;
33862;SDS011;20158;51.436;-2.742;2023-05-17T04:39:08;3.42;;;2.72;;
33862;SDS011;20158;51.436;-2.742;2023-05-17T04:41:35;3.80;;;2.80;;
33862;SDS011;20158;51.436;-2.742;2023-05-17T04:44:04;4.03;;;3.28;;
33862;SDS011;20158;51.436;-2.742;2023-05-17T04:46:34;4.53;;;2.95;;
33862;SDS011;20158;51.436;-2.742;2023-05-17T04:49:00;3.75;;;3.00;;
33862;SDS011;20158;51.436;-2.742;2023-05-17T04:51:30;7.05;;;3.22;;
33862;SDS011;20158;51.436;-2.742;2023-05-17T04:53:56;4.75;;;3.22;;
33862;SDS011;20158;51.436;-2.742;2023-05-17T04:56:26;4.20;;;3.55;;
33862;SDS011;20158;51.436;-2.742;2023-05-17T04:58:53;5.28;;;3.00;;
33862;SDS011;20158;51.436;-2.742;2023-05-17T05:01:19;3.65;;;2.78;;
33862;SDS011;20158;51.436;-2.742;2023-05-17T05:03:46;4.05;;;3.20;;
33862;SDS011;20158;51.436;-2.742;2023-05-17T05:06:12;5.35;;;3.03;;
33862;SDS011;20158;51.436;-2.742;2023-05-17T05:08:41;4.20;;;2.55;;
33862;SDS011;20158;51.436;-2.742;2023-05-17T05:11:09;3.08;;;2.55;;
33862;SDS011;20158;51.436;-2.742;2023-05-17T05:13:36;3.38;;;2.63;;
33862;SDS011;20158;51.436;-2.742;2023-05-17T05:16:05;4.68;;;3.00;;
33862;SDS011;20158;51.436;-2.742;2023-05-17T05:18:31;5.95;;;3.28;;
33862;SDS011;20158;51.436;-2.742;2023-05-17T05:20:58;3.47;;;2.50;;
33862;SDS011;20158;51.436;-2.742;2023-05-17T05:23:24;3.45;;;2.72;;
33862;SDS011;20158;51.436;-2.742;2023-05-17T05:25:51;3.50;;;2.53;;
33862;SDS011;20158;51.436;-2.742;2023-05-17T05:28:17;5.68;;;2.80;;
33862;SDS011;20158;51.436;-2.742;2023-05-17T05:30:43;3.78;;;2.60;;
33862;SDS011;20158;51.436;-2.742;2023-05-17T05:33:10;5.15;;;2.75;;
33862;SDS011;20158;51.436;-2.742;2023-05-17T05:35:36;4.50;;;3.20;;
33862;SDS011;20158;51.436;-2.742;2023-05-17T05:38:02;5.47;;;2.70;;
33862;SDS011;20158;51.436;-2.742;2023-05-17T05:40:29;3.72;;;2.70;;
33862;SDS011;20158;51.436;-2.742;2023-05-17T05:42:54;4.60;;;3.00;;
33862;SDS011;20158;51.436;-2.742;2023-05-17T05:45:20;5.88;;;3.15;;
33862;SDS011;20158;51.436;-2.742;2023-05-17T05:47:48;3.50;;;2.30;;
33862;SDS011;20158;51.436;-2.742;2023-05-17T05:50:14;5.53;;;3.10;;
33862;SDS011;20158;51.436;-2.742;2023-05-17T05:52:42;4.10;;;3.78;;
33862;SDS011;20158;51.436;-2.742;2023-05-17T05:55:08;5.07;;;3.85;;
33862;SDS011;20158;51.436;-2.742;2023-05-17T05:57:34;3.33;;;2.38;;
33862;SDS011;20158;51.436;-2.742;2023-05-17T06:00:00;5.47;;;2.85;;
33862;SDS011;20158;51.436;-2.742;2023-05-17T06:02:26;2.97;;;2.60;;
33862;SDS011;20158;51.436;-2.742;2023-05-17T06:04:52;4.10;;;2.83;;
33862;SDS011;20158;51.436;-2.742;2023-05-17T06:07:17;4.53;;;2.72;;
33862;SDS011;20158;51.436;-2.742;2023-05-17T06:09:43;3.83;;;3.03;;
33862;SDS011;20158;51.436;-2.742;2023-05-17T06:12:09;5.65;;;2.85;;
33862;SDS011;20158;51.436;-2.742;2023-05-17T06:14:35;4.38;;;3.03;;
33862;SDS011;20158;51.436;-2.742;2023-05-17T06:17:04;3.08;;;2.75;;
33862;SDS011;20158;51.436;-2.742;2023-05-17T06:19:30;3.80;;;2.28;;
33862;SDS011;20158;51.436;-2.742;2023-05-17T06:21:56;5.15;;;2.78;;
33862;SDS011;20158;51.436;-2.742;2023-05-17T06:24:22;3.72;;;2.58;;
33862;SDS011;20158;51.436;-2.742;2023-05-17T06:26:48;4.22;;;2.90;;
33862;SDS011;20158;51.436;-2.742;2023-05-17T06:29:14;7.13;;;2.92;;
33862;SDS011;20158;51.436;-2.742;2023-05-17T06:31:40;3.17;;;2.60;;
33862;SDS011;20158;51.436;-2.742;2023-05-17T06:34:06;4.40;;;3.05;;
33862;SDS011;20158;51.436;-2.742;2023-05-17T06:36:32;4.45;;;3.08;;
33862;SDS011;20158;51.436;-2.742;2023-05-17T06:38:58;3.97;;;2.88;;
33862;SDS011;20158;51.436;-2.742;2023-05-17T06:41:25;5.60;;;3.72;;
33862;SDS011;20158;51.436;-2.742;2023-05-17T06:43:50;4.30;;;2.85;;
33862;SDS011;20158;51.436;-2.742;2023-05-17T06:46:18;6.50;;;3.38;;
33862;SDS011;20158;51.436;-2.742;2023-05-17T06:48:43;5.45;;;3.78;;
33862;SDS011;20158;51.436;-2.742;2023-05-17T06:51:09;5.25;;;3.00;;
33862;SDS011;20158;51.436;-2.742;2023-05-17T06:53:35;6.90;;;4.10;;
33862;SDS011;20158;51.436;-2.742;2023-05-17T06:56:01;3.92;;;3.53;;
33862;SDS011;20158;51.436;-2.742;2023-05-17T06:58:27;6.45;;;3.92;;
33862;SDS011;20158;51.436;-2.742;2023-05-17T07:00:53;4.50;;;3.30;;
33862;SDS011;20158;51.436;-2.742;2023-05-17T07:03:19;5.78;;;4.10;;
33862;SDS011;20158;51.436;-2.742;2023-05-17T07:05:45;4.47;;;3.20;;
33862;SDS011;20158;51.436;-2.742;2023-05-17T07:08:10;5.32;;;3.50;;
33862;SDS011;20158;51.436;-2.742;2023-05-17T07:10:36;6.32;;;3.95;;
33862;SDS011;20158;51.436;-2.742;2023-05-17T07:13:02;3.75;;;3.20;;
33862;SDS011;20158;51.436;-2.742;2023-05-17T07:15:28;7.05;;;4.20;;
33862;SDS011;20158;51.436;-2.742;2023-05-17T07:17:54;3.60;;;2.92;;
33862;SDS011;20158;51.436;-2.742;2023-05-17T07:20:20;6.20;;;3.85;;
33862;SDS011;20158;51.436;-2.742;2023-05-17T07:22:46;5.15;;;3.45;;
33862;SDS011;20158;51.436;-2.742;2023-05-17T07:25:12;6.38;;;3.95;;
33862;SDS011;20158;51.436;-2.742;2023-05-17T07:27:40;5.13;;;3.58;;
33862;SDS011;20158;51.436;-2.742;2023-05-17T07:30:06;5.15;;;3.10;;
33862;SDS011;20158;51.436;-2.742;2023-05-17T07:32:32;4.65;;;3.65;;
33862;SDS011;20158;51.436;-2.742;2023-05-17T07:34:58;6.10;;;3.70;;
33862;SDS011;20158;51.436;-2.742;2023-05-17T07:37:24;5.50;;;3.92;;
33862;SDS011;20158;51.436;-2.742;2023-05-17T07:39:50;6.07;;;3.88;;
33862;SDS011;20158;51.436;-2.742;2023-05-17T07:42:15;6.47;;;3.72;;
33862;SDS011;20158;51.436;-2.742;2023-05-17T07:44:41;8.38;;;3.58;;
33862;SDS011;20158;51.436;-2.742;2023-05-17T07:47:07;5.57;;;3.20;;
33862;SDS011;20158;51.436;-2.742;2023-05-17T07:49:33;5.55;;;3.33;;
33862;SDS011;20158;51.436;-2.742;2023-05-17T07:51:59;5.15;;;3.95;;
33862;SDS011;20158;51.436;-2.742;2023-05-17T07:54:27;5.03;;;3.85;;
33862;SDS011;20158;51.436;-2.742;2023-05-17T07:56:52;4.90;;;3.42;;
33862;SDS011;20158;51.436;-2.742;2023-05-17T07:59:20;5.82;;;3.58;;
33862;SDS011;20158;51.436;-2.742;2023-05-17T08:01:46;5.03;;;3.22;;
33862;SDS011;20158;51.436;-2.742;2023-05-17T08:04:12;5.68;;;3.42;;
33862;SDS011;20158;51.436;-2.742;2023-05-17T08:06:41;5.28;;;2.88;;
33862;SDS011;20158;51.436;-2.742;2023-05-17T08:09:10;7.18;;;3.83;;
33862;SDS011;20158;51.436;-2.742;2023-05-17T08:11:36;5.05;;;2.92;;
33862;SDS011;20158;51.436;-2.742;2023-05-17T08:14:05;3.63;;;2.78;;
33862;SDS011;20158;51.436;-2.742;2023-05-17T08:16:31;8.05;;;3.65;;
33862;SDS011;20158;51.436;-2.742;2023-05-17T08:18:57;4.03;;;2.88;;
33862;SDS011;20158;51.436;-2.742;2023-05-17T08:21:23;5.38;;;3.50;;
33862;SDS011;20158;51.436;-2.742;2023-05-17T08:23:49;5.25;;;2.65;;
33862;SDS011;20158;51.436;-2.742;2023-05-17T08:26:15;7.75;;;3.42;;
33862;SDS011;20158;51.436;-2.742;2023-05-17T08:28:43;6.60;;;3.30;;
33862;SDS011;20158;51.436;-2.742;2023-05-17T08:31:09;5.15;;;2.95;;
33862;SDS011;20158;51.436;-2.742;2023-05-17T08:33:36;6.82;;;3.05;;
33862;SDS011;20158;51.436;-2.742;2023-05-17T08:36:02;4.07;;;2.97;;
33862;SDS011;20158;51.436;-2.742;2023-05-17T08:38:32;4.63;;;2.83;;
33862;SDS011;20158;51.436;-2.742;2023-05-17T08:40:59;6.90;;;2.95;;
33862;SDS011;20158;51.436;-2.742;2023-05-17T08:43:26;3.60;;;2.35;;
33862;SDS011;20158;51.436;-2.742;2023-05-17T08:45:53;3.78;;;2.20;;
33862;SDS011;20158;51.436;-2.742;2023-05-17T08:48:21;3.35;;;2.80;;
33862;SDS011;20158;51.436;-2.742;2023-05-17T08:50:52;4.55;;;2.50;;
33862;SDS011;20158;51.436;-2.742;2023-05-17T08:53:20;4.60;;;2.35;;
33862;SDS011;20158;51.436;-2.742;2023-05-17T08:55:46;5.35;;;2.70;;
33862;SDS011;20158;51.436;-2.742;2023-05-17T08:58:14;2.85;;;2.30;;
33862;SDS011;20158;51.436;-2.742;2023-05-17T09:00:44;3.30;;;2.25;;
33862;SDS011;20158;51.436;-2.742;2023-05-17T09:03:13;4.20;;;2.15;;
33862;SDS011;20158;51.436;-2.742;2023-05-17T09:05:42;3.15;;;2.22;;
33862;SDS011;20158;51.436;-2.742;2023-05-17T09:08:09;3.28;;;2.13;;
33862;SDS011;20158;51.436;-2.742;2023-05-17T09:10:41;4.10;;;2.22;;
33862;SDS011;20158;51.436;-2.742;2023-05-17T09:13:09;3.35;;;2.42;;
33862;SDS011;20158;51.436;-2.742;2023-05-17T09:15:37;3.25;;;2.13;;
33862;SDS011;20158;51.436;-2.742;2023-05-17T09:18:09;4.00;;;2.42;;
33862;SDS011;20158;51.436;-2.742;2023-05-17T09:20:36;2.80;;;2.47;;
33862;SDS011;20158;51.436;-2.742;2023-05-17T09:23:08;5.43;;;2.17;;
33862;SDS011;20158;51.436;-2.742;2023-05-17T09:25:37;4.07;;;2.58;;
33862;SDS011;20158;51.436;-2.742;2023-05-17T09:28:11;5.13;;;2.55;;
33862;SDS011;20158;51.436;-2.742;2023-05-17T09:30:37;3.65;;;2.50;;
33862;SDS011;20158;51.436;-2.742;2023-05-17T09:33:07;5.38;;;2.72;;
33862;SDS011;20158;51.436;-2.742;2023-05-17T09:35:36;4.88;;;2.28;;
33862;SDS011;20158;51.436;-2.742;2023-05-17T09:38:06;4.55;;;2.50;;
33862;SDS011;20158;51.436;-2.742;2023-05-17T09:40:36;4.72;;;2.58;;
33862;SDS011;20158;51.436;-2.742;2023-05-17T09:43:06;3.65;;;2.25;;
33862;SDS011;20158;51.436;-2.742;2023-05-17T09:45:34;3.33;;;2.67;;
33862;SDS011;20158;51.436;-2.742;2023-05-17T09:48:13;4.55;;;2.67;;
33862;SDS011;20158;51.436;-2.742;2023-05-17T09:50:44;4.85;;;2.78;;
33862;SDS011;20158;51.436;-2.742;2023-05-17T09:53:27;4.28;;;2.95;;
33862;SDS011;20158;51.436;-2.742;2023-05-17T09:55:55;3.42;;;2.53;;
33862;SDS011;20158;51.436;-2.742;2023-05-17T09:58:23;5.78;;;2.75;;
33862;SDS011;20158;51.436;-2.742;2023-05-17T10:00:51;4.38;;;2.92;;
33862;SDS011;20158;51.436;-2.742;2023-05-17T10:03:19;5.95;;;3.00;;
33862;SDS011;20158;51.436;-2.742;2023-05-17T10:05:45;5.15;;;2.40;;
33862;SDS011;20158;51.436;-2.742;2023-05-17T10:08:15;4.72;;;2.97;;
33862;SDS011;20158;51.436;-2.742;2023-05-17T10:10:44;4.85;;;2.97;;
33862;SDS011;20158;51.436;-2.742;2023-05-17T10:13:11;4.57;;;2.95;;
33862;SDS011;20158;51.436;-2.742;2023-05-17T10:15:39;5.57;;;3.17;;
33862;SDS011;20158;51.436;-2.742;2023-05-17T10:18:07;4.13;;;2.90;;
33862;SDS011;20158;51.436;-2.742;2023-05-17T10:20:34;3.85;;;3.13;;
33862;SDS011;20158;51.436;-2.742;2023-05-17T10:23:01;6.25;;;2.40;;
33862;SDS011;20158;51.436;-2.742;2023-05-17T10:25:29;5.18;;;3.35;;
33862;SDS011;20158;51.436;-2.742;2023-05-17T10:27:56;4.82;;;2.63;;
33862;SDS011;20158;51.436;-2.742;2023-05-17T10:30:23;3.58;;;2.50;;
33862;SDS011;20158;51.436;-2.742;2023-05-17T10:32:51;3.38;;;2.60;;
33862;SDS011;20158;51.436;-2.742;2023-05-17T10:35:18;3.83;;;2.30;;
33862;SDS011;20158;51.436;-2.742;2023-05-17T10:37:45;5.40;;;2.83;;
33862;SDS011;20158;51.436;-2.742;2023-05-17T10:40:11;4.22;;;2.65;;
33862;SDS011;20158;51.436;-2.742;2023-05-17T10:42:42;4.38;;;2.50;;
33862;SDS011;20158;51.436;-2.742;2023-05-17T10:45:20;3.42;;;2.40;;
33862;SDS011;20158;51.436;-2.742;2023-05-17T10:47:46;2.97;;;2.60;;
33862;SDS011;20158;51.436;-2.742;2023-05-17T10:50:22;5.97;;;2.50;;
33862;SDS011;20158;51.436;-2.742;2023-05-17T10:52:49;4.57;;;2.67;;
33862;SDS011;20158;51.436;-2.742;2023-05-17T10:55:17;4.78;;;2.67;;
33862;SDS011;20158;51.436;-2.742;2023-05-17T10:58:07;4.50;;;2.30;;
33862;SDS011;20158;51.436;-2.742;2023-05-17T11:00:47;3.70;;;2.45;;
33862;SDS011;20158;51.436;-2.742;2023-05-17T11:03:18;4.10;;;2.92;;
33862;SDS011;20158;51.436;-2.742;2023-05-17T11:08:34;3.88;;;2.63;;
33862;SDS011;20158;51.436;-2.742;2023-05-17T11:11:11;4.72;;;2.85;;
33862;SDS011;20158;51.436;-2.742;2023-05-17T11:13:42;3.17;;;2.83;;
33862;SDS011;20158;51.436;-2.742;2023-05-17T11:16:13;3.67;;;2.83;;
33862;SDS011;20158;51.436;-2.742;2023-05-17T11:18:50;3.42;;;2.53;;
33862;SDS011;20158;51.436;-2.742;2023-05-17T11:21:18;5.25;;;2.50;;
33862;SDS011;20158;51.436;-2.742;2023-05-17T11:23:46;3.95;;;2.85;;
33862;SDS011;20158;51.436;-2.742;2023-05-17T11:26:26;2.88;;;2.35;;
33862;SDS011;20158;51.436;-2.742;2023-05-17T11:29:01;4.38;;;2.45;;
33862;SDS011;20158;51.436;-2.742;2023-05-17T11:31:41;4.07;;;2.47;;
33862;SDS011;20158;51.436;-2.742;2023-05-17T11:34:09;3.83;;;2.40;;
33862;SDS011;20158;51.436;-2.742;2023-05-17T11:36:49;4.07;;;2.40;;
33862;SDS011;20158;51.436;-2.742;2023-05-17T11:39:18;3.47;;;3.17;;
33862;SDS011;20158;51.436;-2.742;2023-05-17T11:41:49;3.63;;;2.70;;
33862;SDS011;20158;51.436;-2.742;2023-05-17T11:44:37;4.07;;;2.70;;
33862;SDS011;20158;51.436;-2.742;2023-05-17T11:47:06;4.72;;;2.70;;
33862;SDS011;20158;51.436;-2.742;2023-05-17T11:49:35;3.55;;;2.78;;
33862;SDS011;20158;51.436;-2.742;2023-05-17T11:52:05;3.63;;;2.33;;
33862;SDS011;20158;51.436;-2.742;2023-05-17T11:54:32;3.25;;;2.30;;
33862;SDS011;20158;51.436;-2.742;2023-05-17T11:56:59;3.97;;;2.70;;
33862;SDS011;20158;51.436;-2.742;2023-05-17T11:59:27;2.78;;;2.30;;
33862;SDS011;20158;51.436;-2.742;2023-05-17T12:01:53;3.58;;;2.50;;
33862;SDS011;20158;51.436;-2.742;2023-05-17T12:04:24;4.45;;;2.65;;
33862;SDS011;20158;51.436;-2.742;2023-05-17T12:06:51;3.83;;;3.10;;
33862;SDS011;20158;51.436;-2.742;2023-05-17T12:09:18;5.40;;;3.67;;
33862;SDS011;20158;51.436;-2.742;2023-05-17T12:11:45;4.30;;;3.10;;
33862;SDS011;20158;51.436;-2.742;2023-05-17T12:14:15;2.63;;;2.42;;
33862;SDS011;20158;51.436;-2.742;2023-05-17T12:16:43;5.35;;;2.90;;
33862;SDS011;20158;51.436;-2.742;2023-05-17T12:19:17;3.13;;;2.83;;
33862;SDS011;20158;51.436;-2.742;2023-05-17T12:21:45;5.72;;;2.92;;
33862;SDS011;20158;51.436;-2.742;2023-05-17T12:24:11;4.53;;;2.92;;
33862;SDS011;20158;51.436;-2.742;2023-05-17T12:26:41;2.65;;;2.42;;
33862;SDS011;20158;51.436;-2.742;2023-05-17T12:29:09;4.50;;;2.88;;
33862;SDS011;20158;51.436;-2.742;2023-05-17T12:31:36;2.80;;;2.50;;
33862;SDS011;20158;51.436;-2.742;2023-05-17T12:34:08;3.05;;;2.55;;
33862;SDS011;20158;51.436;-2.742;2023-05-17T12:36:36;3.85;;;2.95;;
33862;SDS011;20158;51.436;-2.742;2023-05-17T12:39:03;4.85;;;3.28;;
33862;SDS011;20158;51.436;-2.742;2023-05-17T12:41:30;3.17;;;2.28;;
33862;SDS011;20158;51.436;-2.742;2023-05-17T12:43:57;3.22;;;2.25;;
33862;SDS011;20158;51.436;-2.742;2023-05-17T12:46:23;3.22;;;2.28;;
33862;SDS011;20158;51.436;-2.742;2023-05-17T12:48:50;3.50;;;2.67;;
33862;SDS011;20158;51.436;-2.742;2023-05-17T12:51:19;3.03;;;2.58;;
33862;SDS011;20158;51.436;-2.742;2023-05-17T12:53:54;2.22;;;1.98;;
33862;SDS011;20158;51.436;-2.742;2023-05-17T12:56:30;4.55;;;2.15;;
33862;SDS011;20158;51.436;-2.742;2023-05-17T13:01:32;4.60;;;2.42;;
33862;SDS011;20158;51.436;-2.742;2023-05-17T13:04:03;2.42;;;2.20;;
33862;SDS011;20158;51.436;-2.742;2023-05-17T13:07:03;2.22;;;1.92;;
33862;SDS011;20158;51.436;-2.742;2023-05-17T13:09:25;2.33;;;2.10;;
33862;SDS011;20158;51.436;-2.742;2023-05-17T13:11:55;2.35;;;1.90;;
33862;SDS011;20158;51.436;-2.742;2023-05-17T13:14:41;2.67;;;2.00;;
33862;SDS011;20158;51.436;-2.742;2023-05-17T13:17:10;2.20;;;1.95;;
33862;SDS011;20158;51.436;-2.742;2023-05-17T13:19:39;3.92;;;2.03;;
33862;SDS011;20158;51.436;-2.742;2023-05-17T13:22:05;3.45;;;2.40;;
33862;SDS011;20158;51.436;-2.742;2023-05-17T13:24:32;4.43;;;2.40;;
33862;SDS011;20158;51.436;-2.742;2023-05-17T13:26:59;3.38;;;2.17;;
33862;SDS011;20158;51.436;-2.742;2023-05-17T13:29:25;2.25;;;1.75;;
33862;SDS011;20158;51.436;-2.742;2023-05-17T13:31:52;4.30;;;2.28;;
33862;SDS011;20158;51.436;-2.742;2023-05-17T13:34:18;3.33;;;2.50;;
33862;SDS011;20158;51.436;-2.742;2023-05-17T13:36:47;3.05;;;2.22;;
33862;SDS011;20158;51.436;-2.742;2023-05-17T13:39:13;2.97;;;1.88;;
33862;SDS011;20158;51.436;-2.742;2023-05-17T13:41:40;2.22;;;1.95;;
33862;SDS011;20158;51.436;-2.742;2023-05-17T13:44:05;2.08;;;1.73;;
33862;SDS011;20158;51.436;-2.742;2023-05-17T13:46:32;2.20;;;1.83;;
33862;SDS011;20158;51.436;-2.742;2023-05-17T13:48:57;2.35;;;2.15;;
33862;SDS011;20158;51.436;-2.742;2023-05-17T13:51:23;2.33;;;1.77;;
33862;SDS011;20158;51.436;-2.742;2023-05-17T13:53:50;5.38;;;2.80;;
33862;SDS011;20158;51.436;-2.742;2023-05-17T13:56:16;2.78;;;1.83;;
33862;SDS011;20158;51.436;-2.742;2023-05-17T13:58:42;1.75;;;1.65;;
33862;SDS011;20158;51.436;-2.742;2023-05-17T14:01:08;2.17;;;1.73;;
33862;SDS011;20158;51.436;-2.742;2023-05-17T14:03:34;2.13;;;1.63;;
33862;SDS011;20158;51.436;-2.742;2023-05-17T14:06:02;2.13;;;1.90;;
33862;SDS011;20158;51.436;-2.742;2023-05-17T14:08:28;3.13;;;2.05;;
33862;SDS011;20158;51.436;-2.742;2023-05-17T14:10:55;2.60;;;2.20;;
33862;SDS011;20158;51.436;-2.742;2023-05-17T14:13:20;2.60;;;2.05;;
33862;SDS011;20158;51.436;-2.742;2023-05-17T14:15:46;2.90;;;2.35;;
33862;SDS011;20158;51.436;-2.742;2023-05-17T14:18:12;2.63;;;1.85;;
33862;SDS011;20158;51.436;-2.742;2023-05-17T14:20:38;2.58;;;2.25;;
33862;SDS011;20158;51.436;-2.742;2023-05-17T14:23:04;3.47;;;2.40;;
33862;SDS011;20158;51.436;-2.742;2023-05-17T14:25:30;4.53;;;2.28;;
33862;SDS011;20158;51.436;-2.742;2023-05-17T14:27:57;2.63;;;2.15;;
33862;SDS011;20158;51.436;-2.742;2023-05-17T14:30:23;2.63;;;2.20;;
33862;SDS011;20158;51.436;-2.742;2023-05-17T14:32:49;2.85;;;2.45;;
33862;SDS011;20158;51.436;-2.742;2023-05-17T14:35:15;2.72;;;2.53;;
33862;SDS011;20158;51.436;-2.742;2023-05-17T14:37:44;2.60;;;1.90;;
33862;SDS011;20158;51.436;-2.742;2023-05-17T14:40:10;2.05;;;1.85;;
33862;SDS011;20158;51.436;-2.742;2023-05-17T14:42:36;1.98;;;1.65;;
33862;SDS011;20158;51.436;-2.742;2023-05-17T14:45:03;2.10;;;1.67;;
33862;SDS011;20158;51.436;-2.742;2023-05-17T14:47:30;3.13;;;2.33;;
33862;SDS011;20158;51.436;-2.742;2023-05-17T14:49:56;3.08;;;2.33;;
33862;SDS011;20158;51.436;-2.742;2023-05-17T14:52:22;3.25;;;2.80;;
33862;SDS011;20158;51.436;-2.742;2023-05-17T14:54:48;2.60;;;2.10;;
33862;SDS011;20158;51.436;-2.742;2023-05-17T14:57:14;2.17;;;1.90;;